Time;durP1;ratioP1;P1;durP2;ratioP2;P2;SDS_P1;SDS_P2;PMS_P1;PMS_P2;Temp;Humidity;BMP_temperature;BMP_pressure;BME280_temperature;BME280_humidity;BME280_pressure;Samples;Min_cycle;Max_cycle;Signal;HPM_P1;HPM_P2
2021/10/10 00:02:28;;;;;;;35.40;16.70;;;;;;;2.88;66.20;100030.84;235820;1200;25329;-74
2021/10/10 00:07:31;;;;;;;32.30;16.70;;;;;;;2.85;66.46;100024.38;235852;1199;24092;-72
2021/10/10 00:12:37;;;;;;;35.00;18.30;;;;;;;2.83;66.74;100026.23;236019;1199;22539;-73
2021/10/10 00:17:42;;;;;;;33.80;16.80;;;;;;;2.80;66.72;100027.52;236065;1199;22433;-74
2021/10/10 00:22:53;;;;;;;32.80;16.90;;;;;;;2.75;66.73;100031.84;236204;1193;24142;-72
2021/10/10 00:27:59;;;;;;;34.10;16.60;;;;;;;2.69;66.81;100031.77;235741;1199;24047;-74
2021/10/10 00:33:06;;;;;;;36.10;17.90;;;;;;;2.66;67.12;100032.82;235391;1200;25215;-75
2021/10/10 00:38:09;;;;;;;37.40;18.00;;;;;;;2.64;67.45;100031.52;235193;1200;25131;-73
2021/10/10 00:43:12;;;;;;;34.10;17.10;;;;;;;2.61;67.54;100033.00;235099;1200;25196;-72
2021/10/10 00:48:16;;;;;;;31.90;16.10;;;;;;;2.54;67.37;100032.30;235475;1195;22476;-72
2021/10/10 00:53:19;;;;;;;32.60;16.10;;;;;;;2.46;67.49;100027.27;235874;1199;25144;-74
2021/10/10 00:58:23;;;;;;;36.40;16.60;;;;;;;2.40;67.88;100024.87;235990;1200;22592;-74
2021/10/10 01:03:26;;;;;;;39.70;18.80;;;;;;;2.36;67.89;100021.45;235601;1200;23362;-74
2021/10/10 01:08:30;;;;;;;39.40;17.50;;;;;;;2.34;68.16;100016.73;235359;1200;24284;-74
2021/10/10 01:13:34;;;;;;;32.40;16.50;;;;;;;2.30;68.27;100013.12;235592;1200;22602;-72
2021/10/10 01:18:39;;;;;;;27.80;15.60;;;;;;;2.28;68.16;100011.32;235905;1200;22612;-73
2021/10/10 01:23:41;;;;;;;32.20;15.70;;;;;;;2.30;68.19;100007.86;235529;1198;25319;-75
2021/10/10 01:28:44;;;;;;;34.00;15.60;;;;;;;2.32;68.48;100008.23;235297;1201;24095;-73
2021/10/10 01:33:47;;;;;;;32.90;15.60;;;;;;;2.29;68.39;100007.77;235380;1186;25320;-72
2021/10/10 01:39:09;;;;;;;31.80;15.70;;;;;;;2.21;68.37;99999.07;235334;1199;22427;-73
2021/10/10 01:44:13;;;;;;;26.80;14.90;;;;;;;2.13;68.58;99998.75;235634;1200;25242;-74
2021/10/10 01:49:16;;;;;;;32.90;14.80;;;;;;;2.07;68.65;99990.04;235148;1200;24051;-73
2021/10/10 01:54:22;;;;;;;31.50;15.10;;;;;;;2.05;68.88;99989.75;235640;1199;22954;-73
2021/10/10 01:59:25;;;;;;;30.40;15.70;;;;;;;2.03;69.02;99981.94;235736;1198;25313;-73
2021/10/10 02:04:32;;;;;;;28.90;15.20;;;;;;;2.00;69.05;99979.55;235952;1193;22443;-73
2021/10/10 02:09:44;;;;;;;28.10;15.00;;;;;;;1.97;69.20;99975.88;235922;1193;24009;-74
2021/10/10 02:14:53;;;;;;;33.00;15.20;;;;;;;1.94;69.28;99975.76;236214;1193;22443;-73
2021/10/10 02:19:55;;;;;;;27.30;14.50;;;;;;;1.96;69.50;99977.77;235903;1193;22445;-72
2021/10/10 02:25:03;;;;;;;26.30;14.70;;;;;;;1.97;69.63;99979.74;235913;1198;25151;-75
2021/10/10 02:30:06;;;;;;;30.00;15.10;;;;;;;1.95;69.70;99977.70;234832;1201;24176;-74
2021/10/10 02:35:10;;;;;;;32.90;14.60;;;;;;;1.90;69.75;99974.69;235031;1201;24039;-72
2021/10/10 02:40:17;;;;;;;32.20;14.70;;;;;;;1.85;69.66;99972.85;234838;1201;24025;-72
2021/10/10 02:45:21;;;;;;;29.80;14.40;;;;;;;1.81;69.93;99969.83;235450;1200;22420;-74
2021/10/10 02:50:24;;;;;;;28.20;15.00;;;;;;;1.80;70.26;99965.80;235247;1193;24065;-73
2021/10/10 02:55:27;;;;;;;26.20;15.40;;;;;;;1.78;70.17;99961.10;235595;1199;24089;-74
2021/10/10 03:00:30;;;;;;;30.60;14.70;;;;;;;1.72;70.23;99953.37;235536;1199;24085;-74
2021/10/10 03:05:32;;;;;;;28.60;14.60;;;;;;;1.69;70.07;99953.20;235409;1194;24027;-74
2021/10/10 03:10:36;;;;;;;28.00;14.20;;;;;;;1.67;70.26;99951.61;235442;1199;22453;-74
2021/10/10 03:15:39;;;;;;;29.20;15.20;;;;;;;1.66;70.49;99951.38;235504;1200;24071;-72
2021/10/10 03:20:42;;;;;;;33.00;15.90;;;;;;;1.63;70.65;99948.80;235445;1199;25112;-74
2021/10/10 03:25:45;;;;;;;31.80;15.20;;;;;;;1.58;70.65;99952.20;235438;1193;24069;-74
2021/10/10 03:30:48;;;;;;;30.60;16.00;;;;;;;1.53;70.59;99949.27;235331;1200;25026;-73
2021/10/10 03:35:55;;;;;;;27.70;15.00;;;;;;;1.52;70.82;99941.66;235012;1193;24061;-72
2021/10/10 03:40:57;;;;;;;34.40;16.70;;;;;;;1.51;70.90;99937.20;235216;1200;25048;-72
2021/10/10 03:46:00;;;;;;;30.00;16.00;;;;;;;1.45;70.92;99935.92;235198;1200;24024;-74
2021/10/10 03:51:07;;;;;;;28.40;15.20;;;;;;;1.38;70.85;99934.05;235323;1193;25178;-74
2021/10/10 03:56:17;;;;;;;27.50;15.70;;;;;;;1.34;70.95;99927.30;235513;1199;24156;-74
2021/10/10 04:01:25;;;;;;;35.50;18.30;;;;;;;1.33;71.02;99925.17;235194;1199;24563;-74
2021/10/10 04:06:34;;;;;;;30.80;16.90;;;;;;;1.34;71.28;99925.73;235396;1193;24689;-72
2021/10/10 04:11:37;;;;;;;30.70;16.50;;;;;;;1.32;71.30;99916.14;235816;1199;24061;-75
2021/10/10 04:16:45;;;;;;;31.00;15.10;;;;;;;1.26;71.27;99909.23;235430;1199;22426;-72
2021/10/10 04:21:54;;;;;;;27.70;14.50;;;;;;;1.23;71.30;99911.38;235628;1194;24007;-72
2021/10/10 04:26:57;;;;;;;28.80;13.80;;;;;;;1.21;71.56;99904.52;235417;1193;22449;-74
2021/10/10 04:32:00;;;;;;;27.90;14.10;;;;;;;1.22;71.67;99899.48;235383;1200;24190;-72
2021/10/10 04:37:03;;;;;;;29.40;14.50;;;;;;;1.21;71.57;99896.46;235449;1200;22498;-72
2021/10/10 04:42:06;;;;;;;33.90;15.50;;;;;;;1.17;71.54;99896.22;235403;1200;24208;-73
2021/10/10 04:47:08;;;;;;;31.20;15.00;;;;;;;1.16;71.65;99900.35;235368;1200;24108;-74
2021/10/10 04:52:11;;;;;;;27.20;15.10;;;;;;;1.17;71.56;99898.73;235317;1201;24089;-74
2021/10/10 04:57:14;;;;;;;35.40;16.00;;;;;;;1.13;71.36;99897.14;235466;1193;24216;-74
2021/10/10 05:02:22;;;;;;;34.40;16.80;;;;;;;1.10;71.55;99908.77;235571;1199;25216;-72
2021/10/10 05:07:26;;;;;;;30.40;16.20;;;;;;;1.02;71.77;99907.13;235945;1199;22439;-72
2021/10/10 05:12:30;;;;;;;29.60;16.00;;;;;;;0.98;71.89;99913.85;235770;1194;24047;-72
2021/10/10 05:17:33;;;;;;;30.40;15.60;;;;;;;0.97;72.18;99911.83;235750;1193;24148;-73
2021/10/10 05:22:36;;;;;;;29.90;14.80;;;;;;;1.00;72.33;99910.88;235465;1199;22496;-72
2021/10/10 05:27:39;;;;;;;30.60;16.30;;;;;;;0.99;72.33;99912.80;235476;1200;24161;-74
2021/10/10 05:32:42;;;;;;;28.60;14.70;;;;;;;0.99;72.37;99912.44;235168;1201;25269;-74
2021/10/10 05:37:46;;;;;;;30.00;15.10;;;;;;;1.00;72.14;99910.70;235416;1201;25202;-73
2021/10/10 05:42:48;;;;;;;28.30;16.30;;;;;;;1.08;72.61;99911.29;235322;1201;25222;-74
2021/10/10 05:47:51;;;;;;;31.90;16.10;;;;;;;1.19;72.72;99901.78;235111;1201;24131;-74
2021/10/10 05:52:53;;;;;;;28.60;15.00;;;;;;;1.21;72.70;99907.02;234980;1196;22439;-74
2021/10/10 05:58:01;;;;;;;32.00;15.60;;;;;;;1.22;72.44;99906.79;235644;1193;25175;-72
2021/10/10 06:03:08;;;;;;;31.40;17.00;;;;;;;1.27;72.63;99912.52;235799;1200;22430;-73
2021/10/10 06:08:11;;;;;;;30.00;16.10;;;;;;;1.41;72.71;99912.84;235730;1200;22528;-73
2021/10/10 06:13:13;;;;;;;28.70;14.70;;;;;;;1.58;72.79;99917.55;235684;1196;23072;-73
2021/10/10 06:18:17;;;;;;;32.10;14.30;;;;;;;1.77;72.79;99917.52;235938;1185;25215;-74
2021/10/10 06:23:20;;;;;;;28.60;14.00;;;;;;;1.93;72.60;99914.31;235788;1200;24021;-74
2021/10/10 06:28:22;;;;;;;24.70;13.80;;;;;;;2.11;72.54;99914.72;235374;1200;22475;-71
2021/10/10 06:33:24;;;;;;;21.50;12.90;;;;;;;2.35;72.48;99909.27;235211;1200;22429;-72
2021/10/10 06:38:27;;;;;;;21.50;11.70;;;;;;;2.62;72.19;99905.76;235689;1193;22449;-74
2021/10/10 06:43:29;;;;;;;23.10;12.30;;;;;;;2.88;71.92;99909.09;235860;1186;24094;-73
2021/10/10 06:48:32;;;;;;;25.00;13.80;;;;;;;3.10;71.25;99909.45;235510;1193;24034;-72
2021/10/10 06:53:38;;;;;;;26.30;14.80;;;;;;;3.30;70.98;99904.95;235807;1199;22418;-73
2021/10/10 06:58:41;;;;;;;24.10;13.30;;;;;;;3.49;70.61;99905.96;235935;1199;22443;-72
2021/10/10 07:03:43;;;;;;;24.80;14.00;;;;;;;3.70;70.46;99903.84;235738;1199;25215;-74
2021/10/10 07:08:46;;;;;;;24.90;12.80;;;;;;;3.93;70.03;99904.84;235833;1192;24085;-72
2021/10/10 07:13:49;;;;;;;21.30;13.10;;;;;;;4.17;69.84;99903.56;235955;1197;24032;-74
2021/10/10 07:18:55;;;;;;;21.40;12.80;;;;;;;4.39;69.05;99903.16;235910;1177;24082;-75
2021/10/10 07:29:20;;;;;;;23.70;12.70;;;;;;;4.73;68.72;99902.51;235835;1200;24050;-74
2021/10/10 07:34:32;;;;;;;25.70;14.40;;;;;;;4.89;68.15;99901.46;235628;1196;24087;-72
2021/10/10 07:39:52;;;;;;;29.30;13.80;;;;;;;5.15;68.45;99900.11;235696;1177;24066;-74
2021/10/10 07:44:57;;;;;;;26.90;14.70;;;;;;;5.40;67.93;99902.84;235397;1193;25207;-74
2021/10/10 07:50:00;;;;;;;23.10;12.70;;;;;;;5.63;67.87;99906.27;235408;1201;22864;-72
2021/10/10 07:55:05;;;;;;;22.30;13.10;;;;;;;5.86;67.45;99908.25;235825;1193;22933;-74
2021/10/10 08:00:09;;;;;;;22.70;14.40;;;;;;;6.07;66.44;99909.98;236109;1193;22798;-74
2021/10/10 08:05:12;;;;;;;27.10;15.50;;;;;;;6.25;65.84;99910.70;235926;1199;22541;-73
2021/10/10 08:10:14;;;;;;;25.20;15.00;;;;;;;6.42;65.60;99907.13;236242;1177;24973;-71
2021/10/10 08:15:18;;;;;;;24.90;13.50;;;;;;;6.60;65.03;99904.27;235946;1199;22434;-74
2021/10/10 08:20:20;;;;;;;24.70;13.70;;;;;;;6.80;64.70;99901.20;236248;1193;22884;-71
2021/10/10 08:25:23;;;;;;;23.30;13.90;;;;;;;6.98;63.86;99904.73;235918;1199;25167;-71
2021/10/10 08:30:26;;;;;;;21.60;13.40;;;;;;;6.98;63.35;99903.50;235399;1185;24184;-74
2021/10/10 08:35:28;;;;;;;22.40;13.10;;;;;;;6.91;63.08;99900.53;235334;1201;24132;-72
2021/10/10 08:40:31;;;;;;;19.30;12.20;;;;;;;6.87;62.73;99897.73;235310;1201;24078;-73
2021/10/10 08:45:34;;;;;;;22.80;12.70;;;;;;;6.84;62.37;99891.98;235727;1180;25183;-74
2021/10/10 08:50:37;;;;;;;20.00;10.60;;;;;;;6.85;62.36;99886.39;235557;1200;24504;-74
2021/10/10 08:55:40;;;;;;;20.60;12.20;;;;;;;6.93;62.10;99877.08;236103;1199;24080;-74
2021/10/10 09:01:02;;;;;;;21.40;12.10;;;;;;;7.26;62.85;99875.06;235838;1199;26324;-74
2021/10/10 09:06:04;;;;;;;17.60;11.60;;;;;;;7.74;61.82;99877.20;235889;1199;25130;-71
2021/10/10 09:11:09;;;;;;;17.70;10.30;;;;;;;8.08;61.23;99874.36;236103;1199;24051;-73
2021/10/10 09:16:39;;;;;;;21.00;11.00;;;;;;;8.39;60.38;99868.92;236152;1199;22550;-73
2021/10/10 09:22:02;;;;;;;19.20;11.60;;;;;;;8.88;59.97;99867.84;235729;1198;22473;-71
2021/10/10 09:27:15;;;;;;;16.70;10.30;;;;;;;9.39;59.56;99864.51;236181;1199;22428;-72
2021/10/10 09:32:25;;;;;;;18.10;9.60;;;;;;;9.89;57.83;99864.27;235461;1200;22449;-74
2021/10/10 09:37:44;;;;;;;14.30;9.20;;;;;;;10.34;56.41;99860.23;235405;1201;25330;-73
2021/10/10 09:42:48;;;;;;;16.50;9.30;;;;;;;10.60;55.56;99857.73;235142;1197;22469;-73
2021/10/10 09:48:02;;;;;;;12.10;8.70;;;;;;;10.81;54.28;99853.59;235359;1196;24064;-73
2021/10/10 09:53:10;;;;;;;17.00;10.00;;;;;;;11.05;53.54;99851.51;235777;1177;22571;-71
2021/10/10 09:58:14;;;;;;;16.90;8.90;;;;;;;11.21;52.79;99851.05;236488;1192;22989;-71
2021/10/10 10:03:16;;;;;;;14.90;9.20;;;;;;;11.36;52.28;99850.38;236310;1199;24037;-73
2021/10/10 10:08:19;;;;;;;13.40;8.00;;;;;;;11.46;51.85;99845.55;236151;1199;22463;-73
2021/10/10 10:13:22;;;;;;;11.80;8.30;;;;;;;11.45;50.63;99843.98;235984;1199;25228;-73
2021/10/10 10:18:25;;;;;;;13.50;8.70;;;;;;;11.45;51.03;99841.10;236156;1198;22915;-71
2021/10/10 10:23:32;;;;;;;13.90;8.60;;;;;;;11.54;50.50;99834.45;235974;1193;24041;-71
2021/10/10 10:28:36;;;;;;;13.60;8.60;;;;;;;11.57;49.76;99828.48;235770;1193;25285;-73
2021/10/10 10:33:39;;;;;;;13.30;8.70;;;;;;;11.61;49.99;99825.48;235473;1200;25169;-72
2021/10/10 10:38:47;;;;;;;13.90;8.90;;;;;;;11.65;49.52;99825.91;235696;1193;22562;-74
2021/10/10 10:43:49;;;;;;;14.40;8.90;;;;;;;11.66;48.84;99817.69;235431;1194;22464;-71
2021/10/10 10:48:59;;;;;;;15.10;9.00;;;;;;;11.65;48.82;99816.14;235522;1195;24044;-72
2021/10/10 10:54:38;;;;;;;12.70;8.80;;;;;;;11.60;49.23;99813.19;235666;1184;22557;-71
2021/10/10 11:00:22;;;;;;;12.50;8.20;;;;;;;11.49;48.88;99811.97;236392;1199;25159;-70
2021/10/10 11:05:38;;;;;;;16.40;9.20;;;;;;;11.55;48.87;99810.02;235295;1199;24092;-73
2021/10/10 11:11:00;;;;;;;15.10;8.70;;;;;;;11.62;48.68;99813.40;236255;1199;22457;-71
2021/10/10 11:16:09;;;;;;;12.20;7.90;;;;;;;11.50;48.05;99810.14;236232;1199;24084;-71
2021/10/10 11:21:14;;;;;;;10.90;7.00;;;;;;;11.40;48.51;99810.56;236240;1197;22471;-71
2021/10/10 11:26:32;;;;;;;13.60;7.70;;;;;;;11.58;48.51;99807.73;236315;1198;25136;-74
2021/10/10 11:31:48;;;;;;;13.50;8.00;;;;;;;11.92;48.69;99798.44;235887;1200;24072;-71
2021/10/10 11:36:53;;;;;;;9.30;5.60;;;;;;;12.31;47.83;99791.27;235636;1200;24037;-71
2021/10/10 11:41:57;;;;;;;9.70;5.90;;;;;;;12.55;45.96;99791.27;235676;1200;25016;-72
2021/10/10 11:47:01;;;;;;;9.40;5.00;;;;;;;12.66;45.12;99780.13;235693;1193;25016;-72
2021/10/10 11:52:21;;;;;;;10.30;5.00;;;;;;;12.63;44.67;99771.81;235683;1200;22561;-72
2021/10/10 11:57:26;;;;;;;8.60;6.30;;;;;;;12.43;44.86;99776.38;235835;1192;22567;-71
2021/10/10 12:02:36;;;;;;;7.50;5.20;;;;;;;12.51;44.86;99775.27;235945;1198;25130;-71
2021/10/10 12:07:41;;;;;;;9.60;5.40;;;;;;;12.65;44.77;99770.30;235926;1192;24058;-74
2021/10/10 12:12:49;;;;;;;7.50;5.10;;;;;;;12.74;44.76;99767.17;235944;1199;22437;-71
2021/10/10 12:17:57;;;;;;;8.20;5.20;;;;;;;12.87;44.59;99765.06;236165;1192;22475;-73
2021/10/10 12:23:02;;;;;;;9.80;5.80;;;;;;;12.91;44.43;99760.23;235646;1199;25185;-72
2021/10/10 12:28:08;;;;;;;8.30;5.10;;;;;;;12.96;44.18;99748.16;235546;1199;25110;-72
2021/10/10 12:33:21;;;;;;;9.00;4.80;;;;;;;13.04;44.05;99744.02;235103;1201;25163;-72
2021/10/10 12:38:47;;;;;;;9.40;5.60;;;;;;;13.15;43.60;99749.63;235290;1200;24490;-74
2021/10/10 12:43:50;;;;;;;8.10;5.50;;;;;;;13.28;43.20;99743.60;235038;1195;22434;-71
2021/10/10 12:49:05;;;;;;;10.00;5.90;;;;;;;13.32;42.92;99745.02;235356;1193;24060;-71
2021/10/10 12:54:17;;;;;;;11.90;6.30;;;;;;;13.39;42.94;99743.31;235985;1199;22634;-73
2021/10/10 12:59:23;;;;;;;10.00;6.00;;;;;;;13.45;43.08;99739.50;236117;1199;24050;-73
2021/10/10 13:04:27;;;;;;;9.90;5.70;;;;;;;13.53;43.28;99737.38;235849;1193;22419;-72
2021/10/10 13:09:30;;;;;;;11.80;6.70;;;;;;;13.52;43.18;99729.96;236202;1199;22601;-71
2021/10/10 13:14:34;;;;;;;8.80;6.00;;;;;;;13.52;43.20;99730.50;235856;1193;24163;-73
2021/10/10 13:19:36;;;;;;;9.20;4.90;;;;;;;13.48;42.84;99733.55;236247;1192;24047;-73
2021/10/10 13:24:43;;;;;;;10.90;6.10;;;;;;;13.39;42.53;99739.67;236167;1198;24190;-71
2021/10/10 13:29:46;;;;;;;9.00;5.10;;;;;;;13.29;42.32;99723.48;235885;1199;24553;-71
2021/10/10 13:34:48;;;;;;;8.90;5.00;;;;;;;13.17;42.54;99723.57;235231;1198;24874;-73
2021/10/10 13:39:51;;;;;;;7.40;5.20;;;;;;;13.02;42.15;99725.80;235535;1193;25306;-73
2021/10/10 13:44:54;;;;;;;9.00;5.80;;;;;;;12.89;42.65;99722.55;235178;1195;24089;-73
2021/10/10 13:49:56;;;;;;;7.10;5.10;;;;;;;12.74;42.60;99716.15;235957;1192;22460;-72
2021/10/10 13:54:59;;;;;;;9.00;5.90;;;;;;;12.59;42.80;99711.16;235846;1199;22510;-73
2021/10/10 14:00:01;;;;;;;8.70;5.90;;;;;;;12.43;42.98;99710.16;235819;1193;24174;-73
2021/10/10 14:05:13;;;;;;;9.70;5.40;;;;;;;12.28;43.40;99712.61;235860;1199;24109;-74
2021/10/10 14:10:15;;;;;;;8.70;5.40;;;;;;;12.22;43.81;99716.46;235511;1196;25894;-73
2021/10/10 14:15:18;;;;;;;8.50;5.40;;;;;;;12.22;44.03;99709.36;235943;1199;24069;-72
2021/10/10 14:20:21;;;;;;;7.00;5.30;;;;;;;12.23;44.23;99711.29;235703;1199;24127;-72
2021/10/10 14:25:23;;;;;;;9.80;5.90;;;;;;;12.20;44.00;99708.35;235708;1195;24089;-71
2021/10/10 14:30:26;;;;;;;9.30;5.20;;;;;;;12.14;44.00;99712.40;235651;1193;24830;-73
2021/10/10 14:35:29;;;;;;;11.50;5.30;;;;;;;12.09;44.19;99709.36;235370;1201;24101;-73
2021/10/10 14:40:34;;;;;;;10.80;6.30;;;;;;;12.04;44.08;99704.54;235234;1201;22453;-73
2021/10/10 14:45:46;;;;;;;8.80;5.60;;;;;;;11.94;44.36;99703.13;235361;1201;22466;-71
2021/10/10 14:50:50;;;;;;;14.70;7.10;;;;;;;11.79;44.52;99700.80;235200;1201;24036;-73
2021/10/10 14:55:53;;;;;;;8.50;5.10;;;;;;;11.66;45.04;99697.89;235678;1199;24554;-71
2021/10/10 15:00:55;;;;;;;7.70;5.60;;;;;;;11.54;45.21;99691.38;235889;1192;24013;-73
2021/10/10 15:05:59;;;;;;;12.30;7.70;;;;;;;11.41;45.27;99691.98;236050;1199;24085;-73
2021/10/10 15:11:02;;;;;;;18.00;10.30;;;;;;;11.31;45.90;99697.95;236294;1199;22998;-71
2021/10/10 15:16:06;;;;;;;15.50;10.20;;;;;;;11.21;46.32;99695.88;235983;1199;22694;-73
2021/10/10 15:21:08;;;;;;;17.10;10.40;;;;;;;11.09;46.93;99688.01;235757;1184;22470;-72
2021/10/10 15:26:12;;;;;;;21.20;11.40;;;;;;;10.94;47.06;99688.48;235961;1199;25204;-73
2021/10/10 15:31:15;;;;;;;20.80;12.00;;;;;;;10.74;47.43;99683.91;235175;1194;24061;-72
2021/10/10 15:36:18;;;;;;;20.50;12.50;;;;;;;10.52;47.92;99685.33;235757;1199;25098;-73
2021/10/10 15:41:21;;;;;;;24.70;14.20;;;;;;;10.30;48.10;99684.36;235508;1193;23128;-73
2021/10/10 15:46:24;;;;;;;25.80;15.90;;;;;;;10.08;48.62;99682.08;235368;1200;22451;-71
2021/10/10 15:51:27;;;;;;;28.90;16.40;;;;;;;9.85;49.16;99679.86;235358;1200;22430;-74
2021/10/10 15:56:30;;;;;;;28.10;16.50;;;;;;;9.63;49.66;99678.89;235089;1192;25021;-74
2021/10/10 16:01:34;;;;;;;28.60;17.20;;;;;;;9.39;50.06;99680.99;235405;1199;25278;-71
2021/10/10 16:06:39;;;;;;;32.60;17.50;;;;;;;9.15;50.59;99676.57;235787;1199;22429;-71
2021/10/10 16:11:44;;;;;;;34.70;20.40;;;;;;;8.90;51.07;99676.86;235304;1199;24093;-71
2021/10/10 16:16:49;;;;;;;31.20;16.80;;;;;;;8.66;51.64;99685.90;235371;1199;24060;-74
2021/10/10 16:21:51;;;;;;;30.00;16.40;;;;;;;8.43;52.59;99680.64;235384;1199;22458;-73
2021/10/10 16:26:54;;;;;;;32.60;16.80;;;;;;;8.21;53.17;99679.58;235564;1193;24064;-73
2021/10/10 16:32:02;;;;;;;31.50;16.80;;;;;;;8.00;53.82;99675.52;235574;1200;24093;-71
2021/10/10 16:42:25;;;;;;;32.00;18.40;;;;;;;7.68;55.09;99678.36;235447;1193;24047;-71
2021/10/10 16:47:27;;;;;;;32.40;18.30;;;;;;;7.56;55.68;99680.02;235118;1198;22447;-74
2021/10/10 16:52:30;;;;;;;36.60;19.30;;;;;;;7.43;56.15;99674.30;235574;1200;24557;-73
2021/10/10 16:57:33;;;;;;;30.10;17.70;;;;;;;7.28;56.18;99674.09;235551;1194;24179;-72
2021/10/10 17:02:36;;;;;;;32.30;18.20;;;;;;;7.13;56.88;99674.98;235360;1197;24083;-71
2021/10/10 17:07:39;;;;;;;34.20;18.60;;;;;;;6.97;57.40;99672.02;235757;1187;22470;-75
2021/10/10 17:12:42;;;;;;;32.50;17.70;;;;;;;6.85;57.69;99666.17;235642;1199;25183;-73
2021/10/10 17:17:45;;;;;;;35.30;19.30;;;;;;;6.77;58.25;99660.20;235785;1177;24738;-71
2021/10/10 17:22:48;;;;;;;48.10;24.40;;;;;;;6.70;58.76;99659.08;235515;1200;22455;-72
2021/10/10 17:27:50;;;;;;;88.10;39.40;;;;;;;6.62;59.08;99652.81;235501;1197;25262;-72
2021/10/10 17:32:53;;;;;;;120.00;50.00;;;;;;;6.54;59.17;99647.41;235514;1193;24594;-73
2021/10/10 17:37:56;;;;;;;123.80;54.90;;;;;;;6.45;59.47;99646.08;235361;1200;24303;-73
2021/10/10 17:42:59;;;;;;;84.60;39.70;;;;;;;6.34;59.79;99644.62;235179;1200;24191;-73
2021/10/10 17:48:02;;;;;;;70.60;35.50;;;;;;;6.25;59.66;99641.62;235731;1200;24187;-74
2021/10/10 17:53:05;;;;;;;64.80;31.30;;;;;;;6.19;59.63;99640.65;235586;1195;22443;-71
2021/10/10 17:58:12;;;;;;;54.40;28.40;;;;;;;6.15;59.84;99639.15;235926;1199;24055;-71
2021/10/10 18:13:41;;;;;;;56.20;29.10;;;;;;;6.22;59.16;99639.88;235889;1194;25183;-73
2021/10/10 18:18:45;;;;;;;67.70;32.80;;;;;;;6.28;58.79;99644.02;236164;1199;24161;-75
2021/10/10 18:23:47;;;;;;;69.80;34.70;;;;;;;6.32;58.69;99639.56;235760;1197;25354;-73
2021/10/10 18:28:51;;;;;;;70.20;32.30;;;;;;;6.40;58.84;99640.19;235442;1200;24063;-74
2021/10/10 18:33:54;;;;;;;69.00;33.90;;;;;;;6.42;58.38;99644.32;235105;1194;22571;-73
2021/10/10 18:38:56;;;;;;;68.60;32.90;;;;;;;6.39;58.10;99645.81;235206;1201;22433;-74
2021/10/10 18:43:59;;;;;;;65.70;29.80;;;;;;;6.35;58.49;99645.74;235473;1193;24068;-74
2021/10/10 18:49:01;;;;;;;73.60;31.70;;;;;;;6.35;58.63;99647.13;235466;1198;22451;-75
2021/10/10 18:54:10;;;;;;;76.40;34.30;;;;;;;6.35;58.82;99652.62;235579;1193;24056;-74
2021/10/10 18:59:13;;;;;;;65.80;31.40;;;;;;;6.35;58.89;99645.89;236359;1199;24126;-73
2021/10/10 19:04:15;;;;;;;75.00;33.60;;;;;;;6.36;59.27;99641.02;235912;1199;22435;-74
2021/10/10 19:09:18;;;;;;;62.50;30.40;;;;;;;6.31;59.16;99641.53;235853;1184;25139;-73
2021/10/10 19:14:20;;;;;;;58.70;28.70;;;;;;;6.24;59.07;99640.75;235905;1199;24084;-74
2021/10/10 19:19:23;;;;;;;53.90;27.40;;;;;;;6.13;59.36;99642.31;236072;1193;24011;-72
2021/10/10 19:24:26;;;;;;;57.60;28.20;;;;;;;6.06;59.52;99641.79;236157;1199;24190;-74
2021/10/10 19:29:29;;;;;;;50.60;24.50;;;;;;;6.00;59.73;99642.60;235542;1187;24087;-74
2021/10/10 19:34:31;;;;;;;48.60;24.20;;;;;;;5.96;60.01;99635.16;235346;1195;22426;-74
2021/10/10 19:39:33;;;;;;;49.60;26.00;;;;;;;5.94;60.29;99633.93;235120;1200;24198;-74
2021/10/10 19:44:47;;;;;;;53.50;27.00;;;;;;;5.90;60.42;99638.44;235408;1200;24199;-71
2021/10/10 19:49:49;;;;;;;49.60;26.80;;;;;;;5.82;60.82;99639.28;235312;1200;24050;-74
2021/10/10 19:54:52;;;;;;;55.40;27.30;;;;;;;5.69;60.94;99632.42;235840;1199;26293;-71
2021/10/10 19:59:55;;;;;;;56.60;27.40;;;;;;;5.51;61.35;99627.08;236187;1199;22436;-71
2021/10/10 20:04:58;;;;;;;55.10;26.10;;;;;;;5.36;61.44;99620.80;236140;1177;22608;-71
2021/10/10 20:10:01;;;;;;;47.40;24.00;;;;;;;5.22;62.29;99620.67;235881;1196;25325;-71
2021/10/10 20:15:05;;;;;;;52.00;27.60;;;;;;;5.14;62.83;99612.77;236002;1184;24105;-72
2021/10/10 20:20:08;;;;;;;54.70;28.40;;;;;;;5.05;63.09;99614.23;235843;1199;25010;-71
2021/10/10 20:25:11;;;;;;;48.30;26.10;;;;;;;4.93;63.27;99613.86;236128;1198;22461;-73
2021/10/10 20:30:14;;;;;;;50.60;25.70;;;;;;;4.79;63.56;99612.98;235239;1200;25406;-74
2021/10/10 20:35:16;;;;;;;56.90;27.10;;;;;;;4.62;63.93;99610.94;235262;1200;24023;-74
2021/10/10 20:40:19;;;;;;;54.10;26.60;;;;;;;4.52;64.73;99608.27;235312;1200;24195;-72
2021/10/10 20:45:22;;;;;;;52.90;27.40;;;;;;;4.49;65.21;99607.98;235395;1193;24588;-71
2021/10/10 20:50:25;;;;;;;54.40;28.70;;;;;;;4.44;65.23;99598.67;235280;1200;24936;-74
2021/10/10 20:55:29;;;;;;;56.90;28.30;;;;;;;4.42;65.70;99601.48;235653;1199;24064;-74
2021/10/10 21:00:35;;;;;;;55.20;27.90;;;;;;;4.38;65.95;99597.25;235415;1199;22432;-74
2021/10/10 21:05:40;;;;;;;49.60;25.70;;;;;;;4.35;66.19;99594.73;235468;1193;24092;-72
2021/10/10 21:10:44;;;;;;;59.10;29.30;;;;;;;4.35;66.58;99580.73;235518;1194;22433;-72
2021/10/10 21:15:48;;;;;;;65.90;31.10;;;;;;;4.33;66.78;99578.44;235650;1199;22598;-72
2021/10/10 21:20:51;;;;;;;55.70;29.80;;;;;;;4.28;66.74;99572.02;235531;1194;22523;-74
2021/10/10 21:25:53;;;;;;;55.10;27.70;;;;;;;4.22;66.91;99565.45;235538;1199;25312;-72
2021/10/10 21:36:03;;;;;;;57.60;29.70;;;;;;;4.14;67.24;99562.60;234992;1193;22597;-72
2021/10/10 21:41:06;;;;;;;58.40;30.40;;;;;;;4.06;67.44;99560.59;235276;1201;22586;-73
2021/10/10 21:46:08;;;;;;;60.90;28.20;;;;;;;4.01;67.83;99560.95;235436;1193;24049;-74
2021/10/10 21:51:13;;;;;;;59.30;28.60;;;;;;;3.97;67.92;99552.88;234960;1201;22473;-74
2021/10/10 21:56:16;;;;;;;56.00;30.60;;;;;;;3.96;68.05;99550.05;235365;1186;22572;-73
2021/10/10 22:01:18;;;;;;;69.30;31.40;;;;;;;3.95;68.26;99546.15;235549;1199;22486;-72
2021/10/10 22:06:29;;;;;;;65.30;30.50;;;;;;;3.89;68.16;99538.48;235777;1199;23986;-74
2021/10/10 22:11:31;;;;;;;64.90;30.70;;;;;;;3.83;68.23;99536.45;235405;1193;24109;-72
2021/10/10 22:16:36;;;;;;;64.40;31.50;;;;;;;3.78;68.45;99526.84;235511;1199;24102;-73
2021/10/10 22:21:46;;;;;;;74.00;35.10;;;;;;;3.80;68.52;99514.10;235510;1199;22446;-74
2021/10/10 22:27:02;;;;;;;80.80;38.60;;;;;;;3.83;68.52;99517.84;235355;1193;26161;-74
2021/10/10 22:32:11;;;;;;;69.30;34.50;;;;;;;3.80;68.61;99518.26;235245;1200;25125;-72
2021/10/10 22:37:14;;;;;;;67.70;31.90;;;;;;;3.72;68.64;99523.66;235200;1200;24051;-73
2021/10/10 22:42:16;;;;;;;65.20;31.10;;;;;;;3.62;68.67;99521.85;235499;1200;24070;-73
2021/10/10 22:47:19;;;;;;;57.70;29.50;;;;;;;3.55;69.00;99516.05;235001;1197;25199;-74
2021/10/10 22:52:22;;;;;;;64.20;31.80;;;;;;;3.49;69.12;99504.97;235225;1200;26186;-71
2021/10/10 22:57:31;;;;;;;64.80;31.20;;;;;;;3.38;69.23;99500.25;235673;1193;24117;-72
2021/10/10 23:02:34;;;;;;;64.30;30.80;;;;;;;3.32;69.59;99501.96;235649;1199;22516;-71
2021/10/10 23:07:36;;;;;;;65.90;31.70;;;;;;;3.30;69.70;99494.23;235437;1196;22566;-72
2021/10/10 23:12:39;;;;;;;77.00;35.70;;;;;;;3.33;70.01;99487.85;235245;1199;22452;-72
2021/10/10 23:18:02;;;;;;;77.70;37.20;;;;;;;3.40;70.18;99484.13;235602;1192;24179;-72
2021/10/10 23:23:08;;;;;;;76.40;35.70;;;;;;;3.43;70.02;99482.66;235450;1193;22420;-72
2021/10/10 23:28:10;;;;;;;75.70;36.90;;;;;;;3.44;69.81;99480.20;235140;1194;24024;-73
2021/10/10 23:33:13;;;;;;;78.60;36.10;;;;;;;3.43;69.75;99478.95;235158;1200;22450;-72
2021/10/10 23:38:16;;;;;;;75.00;37.30;;;;;;;3.41;69.95;99477.96;235204;1200;24095;-72
2021/10/10 23:43:18;;;;;;;76.40;36.00;;;;;;;3.40;70.12;99473.53;235288;1200;24057;-74
2021/10/10 23:48:21;;;;;;;70.60;34.10;;;;;;;3.32;69.99;99471.23;235711;1200;25204;-71